EGSSEPKT

Guest
Details From EGSS - London Stansted
To EPKT - Pyrzowice
Flight Number -
Tags Generated
Created
Modified
Stats Distance 713 nm / 1,321 km
Max Altitude 0 ft / 0 m
Waypoints 8
Social Downloads 2
Likes 0
Share VATSIM

Download

Looking for another format? Having issues loading an existing format? Contact us
Advertisement - Login to hide

Notes

Generated

Route

EGSS RIVER NAPSI TOLTA DP482 GIGAL SUDOL EPKT

ID Type Via Altitude Latitude Longitude Leg Dist Tot Dist Heading (true) Name
O EGSS APT - 0 ft / 0 m 51.87508˚ 0.21993˚ - 0 nm - -
RIVER FIX - 0 ft / 0 m 51.91278˚ 4.13250˚ 145 nm 145 nm 88° / 91° -
NAPSI FIX - 0 ft / 0 m 51.85528˚ 6.02139˚ 70 nm 215 nm 92° / 94° -
TOLTA FIX - 0 ft / 0 m 51.68722˚ 9.51250˚ 130 nm 345 nm 93° / 96° -
DP482 FIX - 0 ft / 0 m 51.49717˚ 12.31952˚ 105 nm 450 nm 95° / 97° -
GIGAL FIX - 0 ft / 0 m 51.07861˚ 16.49194˚ 158 nm 609 nm 97° / 101° -
SUDOL FIX - 0 ft / 0 m 50.65333˚ 18.41167˚ 77 nm 686 nm 109° / 110° -
O EPKT APT - 0 ft / 0 m 50.47431˚ 19.05464˚ 26 nm 713 nm 113° / 114° -

Altitude Profile

Advertisement - Login to hide

Weather


0- 5 10 15 20 25 30 35+ Temperature / ° C

Clouds and Precipitation
Forecast for 2018-05-23 12:00 UTC. Updated 2 hours ago

Ground ~20,000 ft ~40,000 ft Winds

EGSS

Details ICAO EGSS (STN)
Name London Stansted
Region United Kingdom
Timezone Europe/London (UTC+1.0)
Stats Elevation 348 ft / 106 m (AMSL)
Location 51.885097° 0.234962°
Runways 1
Magnetic Variation 0.298° W

METAR

EGSS 231320Z AUTO 36011KT 330V030 9999 NCD 17/12 Q1023

Decode

TAF

TAF EGSS 231104Z 2312/2418 02012KT 9999 FEW030 TEMPO 2312/2319 03015G25KT PROB30 TEMPO 2316/2409 6000 SHRA

Decode

Departure Runways

ID Width Length Bearing (true) Bearing (mag) Surface Threshold Offset Overrun Length
04 151 ft / 46 m 10,011 ft / 3,052 m 42.79° 43.09° Asphalt 994 ft / 303 m 0 ft / 0 m
22 151 ft / 46 m 10,011 ft / 3,052 m 222.81° 223.11° Asphalt 0 ft / 0 m 0 ft / 0 m

EPKT

Details ICAO EPKT (KTW)
Name PYRZOWICE
Region Poland
Timezone Europe/Warsaw (UTC+2.0)
Stats Elevation 995 ft / 303 m (AMSL)
Location 50.474263° 19.074356°
Runways 1
Magnetic Variation 5.139° E

METAR

EPKT 231300Z 06005KT 330V140 9999 FEW045 23/11 Q1020

Decode

TAF

TAF EPKT 231130Z 2312/2412 06008KT CAVOK TEMPO 2312/2320 VRB15G30KT 2000 TSRA BKN040CB TEMPO 2320/2324 4000 SHRA BKN030CB BECMG 2400/2403 3000 BR PROB30 2400/2405 0800 FG BECMG 2405/2408 CAVOK

Decode

Destination Runways

ID Width Length Bearing (true) Bearing (mag) Surface Threshold Offset Overrun Length
09 195 ft / 59 m 9,156 ft / 2,791 m 90.18° 85.04° Concrete 0 ft / 0 m 0 ft / 0 m
27 195 ft / 59 m 9,156 ft / 2,791 m 270.22° 265.08° Concrete 0 ft / 0 m 0 ft / 0 m

Approach Navaids

Runway Type Ident Frequency Range Bearing (true) Bearing (mag) Slope Elevation
27 Localiser KAT 109.90 MHz 18 nm / 33 km 270.18° 265.04° - 995 ft / 303 m (AMSL)
27 Glidescope KAT 109.90 MHz 10 nm / 19 km 270.20° 265.06° 3.20° 995 ft / 303 m (AMSL)

Popular Alternatives